sensor_id;sensor_type;location;lat;lon;timestamp;temperature;humidity
12229;DHT22;6177;52.402;9.800;2022-09-16T00:02:36;12.20;85.50
12229;DHT22;6177;52.402;9.800;2022-09-16T00:05:20;12.20;85.50
12229;DHT22;6177;52.402;9.800;2022-09-16T00:08:04;12.20;85.60
12229;DHT22;6177;52.402;9.800;2022-09-16T00:10:49;12.20;85.60
12229;DHT22;6177;52.402;9.800;2022-09-16T00:13:33;12.20;85.70
12229;DHT22;6177;52.402;9.800;2022-09-16T00:16:20;12.20;85.70
12229;DHT22;6177;52.402;9.800;2022-09-16T00:19:04;12.20;85.60
12229;DHT22;6177;52.402;9.800;2022-09-16T00:21:48;12.20;85.80
12229;DHT22;6177;52.402;9.800;2022-09-16T00:24:33;12.20;86.00
12229;DHT22;6177;52.402;9.800;2022-09-16T00:27:17;12.10;85.90
12229;DHT22;6177;52.402;9.800;2022-09-16T00:30:02;12.10;86.00
12229;DHT22;6177;52.402;9.800;2022-09-16T00:32:46;12.10;86.20
12229;DHT22;6177;52.402;9.800;2022-09-16T00:35:31;12.10;86.20
12229;DHT22;6177;52.402;9.800;2022-09-16T00:38:15;12.10;86.30
12229;DHT22;6177;52.402;9.800;2022-09-16T00:40:59;12.10;86.40
12229;DHT22;6177;52.402;9.800;2022-09-16T00:43:48;12.10;86.20
12229;DHT22;6177;52.402;9.800;2022-09-16T00:46:39;12.20;86.20
12229;DHT22;6177;52.402;9.800;2022-09-16T00:49:27;12.20;86.10
12229;DHT22;6177;52.402;9.800;2022-09-16T00:52:12;12.20;85.70
12229;DHT22;6177;52.402;9.800;2022-09-16T00:54:57;12.20;85.50
12229;DHT22;6177;52.402;9.800;2022-09-16T00:57:41;12.20;85.60
12229;DHT22;6177;52.402;9.800;2022-09-16T01:00:26;12.20;85.40
12229;DHT22;6177;52.402;9.800;2022-09-16T01:03:11;12.20;85.30
12229;DHT22;6177;52.402;9.800;2022-09-16T01:05:55;12.30;84.90
12229;DHT22;6177;52.402;9.800;2022-09-16T01:08:41;12.20;85.10
12229;DHT22;6177;52.402;9.800;2022-09-16T01:11:25;12.30;84.90
12229;DHT22;6177;52.402;9.800;2022-09-16T01:14:10;12.40;84.60
12229;DHT22;6177;52.402;9.800;2022-09-16T01:42:56;12.80;82.70
12229;DHT22;6177;52.402;9.800;2022-09-16T01:51:33;12.90;82.00
12229;DHT22;6177;52.402;9.800;2022-09-16T01:57:04;12.80;82.00
12229;DHT22;6177;52.402;9.800;2022-09-16T01:59:51;12.90;81.70
12229;DHT22;6177;52.402;9.800;2022-09-16T02:02:48;12.80;81.80
12229;DHT22;6177;52.402;9.800;2022-09-16T02:05:48;12.90;81.30
12229;DHT22;6177;52.402;9.800;2022-09-16T02:11:18;12.90;81.50
12229;DHT22;6177;52.402;9.800;2022-09-16T02:14:12;12.90;81.30
12229;DHT22;6177;52.402;9.800;2022-09-16T02:17:05;12.90;81.40
12229;DHT22;6177;52.402;9.800;2022-09-16T02:19:59;12.90;81.30
12229;DHT22;6177;52.402;9.800;2022-09-16T02:22:48;12.90;81.20
12229;DHT22;6177;52.402;9.800;2022-09-16T02:25:35;12.90;81.50
12229;DHT22;6177;52.402;9.800;2022-09-16T02:28:23;12.90;81.40
12229;DHT22;6177;52.402;9.800;2022-09-16T02:31:08;12.90;81.50
12229;DHT22;6177;52.402;9.800;2022-09-16T02:33:54;12.90;81.50
12229;DHT22;6177;52.402;9.800;2022-09-16T02:36:41;12.90;81.20
12229;DHT22;6177;52.402;9.800;2022-09-16T02:39:27;12.90;81.30
12229;DHT22;6177;52.402;9.800;2022-09-16T02:42:13;12.90;81.30
12229;DHT22;6177;52.402;9.800;2022-09-16T02:44:58;12.90;80.90
12229;DHT22;6177;52.402;9.800;2022-09-16T02:50:44;12.90;81.30
12229;DHT22;6177;52.402;9.800;2022-09-16T02:53:39;12.90;81.40
12229;DHT22;6177;52.402;9.800;2022-09-16T02:56:33;12.80;81.60
12229;DHT22;6177;52.402;9.800;2022-09-16T02:59:19;12.80;81.80
12229;DHT22;6177;52.402;9.800;2022-09-16T03:02:04;12.80;81.80
12229;DHT22;6177;52.402;9.800;2022-09-16T03:04:48;12.80;81.70
12229;DHT22;6177;52.402;9.800;2022-09-16T03:07:33;12.80;82.00
12229;DHT22;6177;52.402;9.800;2022-09-16T03:10:17;12.80;81.90
12229;DHT22;6177;52.402;9.800;2022-09-16T03:13:11;12.80;82.10
12229;DHT22;6177;52.402;9.800;2022-09-16T03:16:42;12.80;82.10
12229;DHT22;6177;52.402;9.800;2022-09-16T03:19:50;12.80;81.90
12229;DHT22;6177;52.402;9.800;2022-09-16T03:22:22;12.80;82.00
12229;DHT22;6177;52.402;9.800;2022-09-16T03:25:12;12.80;82.00
12229;DHT22;6177;52.402;9.800;2022-09-16T03:28:06;12.80;82.00
12229;DHT22;6177;52.402;9.800;2022-09-16T03:33:46;12.80;82.20
12229;DHT22;6177;52.402;9.800;2022-09-16T03:36:34;12.70;82.30
12229;DHT22;6177;52.402;9.800;2022-09-16T03:39:19;12.70;82.40
12229;DHT22;6177;52.402;9.800;2022-09-16T03:42:06;12.60;82.70
12229;DHT22;6177;52.402;9.800;2022-09-16T03:44:51;12.60;82.80
12229;DHT22;6177;52.402;9.800;2022-09-16T03:47:35;12.60;82.80
12229;DHT22;6177;52.402;9.800;2022-09-16T03:50:20;12.50;83.20
12229;DHT22;6177;52.402;9.800;2022-09-16T03:53:04;12.50;83.60
12229;DHT22;6177;52.402;9.800;2022-09-16T03:55:48;12.50;83.50
12229;DHT22;6177;52.402;9.800;2022-09-16T03:58:33;12.50;83.50
12229;DHT22;6177;52.402;9.800;2022-09-16T04:01:18;12.50;83.50
12229;DHT22;6177;52.402;9.800;2022-09-16T04:04:03;12.50;83.40
12229;DHT22;6177;52.402;9.800;2022-09-16T04:06:47;12.60;83.00
12229;DHT22;6177;52.402;9.800;2022-09-16T04:09:32;12.60;83.00
12229;DHT22;6177;52.402;9.800;2022-09-16T04:12:16;12.60;83.10
12229;DHT22;6177;52.402;9.800;2022-09-16T04:15:00;12.70;82.70
12229;DHT22;6177;52.402;9.800;2022-09-16T04:17:44;12.70;82.70
12229;DHT22;6177;52.402;9.800;2022-09-16T04:20:29;12.70;82.80
12229;DHT22;6177;52.402;9.800;2022-09-16T04:23:13;12.60;83.00
12229;DHT22;6177;52.402;9.800;2022-09-16T04:25:59;12.70;81.90
12229;DHT22;6177;52.402;9.800;2022-09-16T04:28:44;12.70;82.20
12229;DHT22;6177;52.402;9.800;2022-09-16T04:31:28;12.80;82.20
12229;DHT22;6177;52.402;9.800;2022-09-16T04:34:13;12.70;82.30
12229;DHT22;6177;52.402;9.800;2022-09-16T04:36:57;12.80;82.10
12229;DHT22;6177;52.402;9.800;2022-09-16T04:39:42;12.80;82.00
12229;DHT22;6177;52.402;9.800;2022-09-16T04:42:26;12.70;82.30
12229;DHT22;6177;52.402;9.800;2022-09-16T04:45:10;12.80;81.30
12229;DHT22;6177;52.402;9.800;2022-09-16T04:47:58;12.80;81.50
12229;DHT22;6177;52.402;9.800;2022-09-16T04:50:42;12.80;81.30
12229;DHT22;6177;52.402;9.800;2022-09-16T04:53:27;12.80;81.50
12229;DHT22;6177;52.402;9.800;2022-09-16T04:56:12;12.80;81.40
12229;DHT22;6177;52.402;9.800;2022-09-16T04:58:59;12.70;81.60
12229;DHT22;6177;52.402;9.800;2022-09-16T05:01:43;12.70;81.60
12229;DHT22;6177;52.402;9.800;2022-09-16T05:04:29;12.80;81.10
12229;DHT22;6177;52.402;9.800;2022-09-16T05:07:13;12.70;81.50
12229;DHT22;6177;52.402;9.800;2022-09-16T05:09:57;12.70;81.80
12229;DHT22;6177;52.402;9.800;2022-09-16T05:12:42;12.70;81.50
12229;DHT22;6177;52.402;9.800;2022-09-16T05:15:26;12.70;82.10
12229;DHT22;6177;52.402;9.800;2022-09-16T05:18:10;12.70;82.00
12229;DHT22;6177;52.402;9.800;2022-09-16T05:20:58;12.80;82.00
12229;DHT22;6177;52.402;9.800;2022-09-16T05:23:43;12.70;82.60
12229;DHT22;6177;52.402;9.800;2022-09-16T05:26:29;12.70;82.60
12229;DHT22;6177;52.402;9.800;2022-09-16T05:29:15;12.80;82.60
12229;DHT22;6177;52.402;9.800;2022-09-16T05:31:59;12.70;82.90
12229;DHT22;6177;52.402;9.800;2022-09-16T05:34:44;12.80;82.60
12229;DHT22;6177;52.402;9.800;2022-09-16T05:37:28;12.70;82.70
12229;DHT22;6177;52.402;9.800;2022-09-16T05:40:13;12.70;82.60
12229;DHT22;6177;52.402;9.800;2022-09-16T05:42:57;12.70;83.00
12229;DHT22;6177;52.402;9.800;2022-09-16T05:45:42;12.80;82.20
12229;DHT22;6177;52.402;9.800;2022-09-16T05:48:26;12.80;82.50
12229;DHT22;6177;52.402;9.800;2022-09-16T05:51:12;12.90;82.10
12229;DHT22;6177;52.402;9.800;2022-09-16T05:53:57;12.90;82.30
12229;DHT22;6177;52.402;9.800;2022-09-16T05:56:42;12.90;82.30
12229;DHT22;6177;52.402;9.800;2022-09-16T05:59:27;12.90;82.40
12229;DHT22;6177;52.402;9.800;2022-09-16T06:02:11;12.90;82.00
12229;DHT22;6177;52.402;9.800;2022-09-16T06:04:56;12.90;82.10
12229;DHT22;6177;52.402;9.800;2022-09-16T06:07:40;12.90;81.80
12229;DHT22;6177;52.402;9.800;2022-09-16T06:10:24;12.80;82.00
12229;DHT22;6177;52.402;9.800;2022-09-16T06:13:09;12.90;81.70
12229;DHT22;6177;52.402;9.800;2022-09-16T06:15:53;12.90;81.70
12229;DHT22;6177;52.402;9.800;2022-09-16T06:18:38;13.00;81.30
12229;DHT22;6177;52.402;9.800;2022-09-16T06:21:22;13.20;80.80
12229;DHT22;6177;52.402;9.800;2022-09-16T06:24:07;13.20;80.40
12229;DHT22;6177;52.402;9.800;2022-09-16T06:26:52;13.40;79.70
12229;DHT22;6177;52.402;9.800;2022-09-16T06:29:36;13.40;79.70
12229;DHT22;6177;52.402;9.800;2022-09-16T06:32:20;13.40;79.70
12229;DHT22;6177;52.402;9.800;2022-09-16T06:35:05;13.40;79.30
12229;DHT22;6177;52.402;9.800;2022-09-16T06:37:50;13.40;79.10
12229;DHT22;6177;52.402;9.800;2022-09-16T06:40:34;13.20;79.30
12229;DHT22;6177;52.402;9.800;2022-09-16T06:43:18;13.10;79.70
12229;DHT22;6177;52.402;9.800;2022-09-16T06:46:03;13.10;79.90
12229;DHT22;6177;52.402;9.800;2022-09-16T06:48:50;13.10;80.00
12229;DHT22;6177;52.402;9.800;2022-09-16T06:51:34;13.00;80.10
12229;DHT22;6177;52.402;9.800;2022-09-16T06:54:19;13.00;79.90
12229;DHT22;6177;52.402;9.800;2022-09-16T06:57:03;13.00;80.10
12229;DHT22;6177;52.402;9.800;2022-09-16T06:59:48;12.90;80.60
12229;DHT22;6177;52.402;9.800;2022-09-16T07:02:32;13.10;79.90
12229;DHT22;6177;52.402;9.800;2022-09-16T07:05:18;13.10;80.50
12229;DHT22;6177;52.402;9.800;2022-09-16T07:08:03;13.10;80.00
12229;DHT22;6177;52.402;9.800;2022-09-16T07:10:57;13.20;79.20
12229;DHT22;6177;52.402;9.800;2022-09-16T07:13:42;13.40;78.70
12229;DHT22;6177;52.402;9.800;2022-09-16T07:16:27;13.40;78.70
12229;DHT22;6177;52.402;9.800;2022-09-16T07:19:11;13.50;78.00
12229;DHT22;6177;52.402;9.800;2022-09-16T07:21:55;13.50;78.20
12229;DHT22;6177;52.402;9.800;2022-09-16T07:24:40;13.60;78.00
12229;DHT22;6177;52.402;9.800;2022-09-16T07:27:24;13.60;77.70
12229;DHT22;6177;52.402;9.800;2022-09-16T07:30:08;13.60;77.70
12229;DHT22;6177;52.402;9.800;2022-09-16T07:32:53;13.70;76.90
12229;DHT22;6177;52.402;9.800;2022-09-16T07:35:38;13.70;76.60
12229;DHT22;6177;52.402;9.800;2022-09-16T07:38:22;13.80;76.70
12229;DHT22;6177;52.402;9.800;2022-09-16T07:41:10;13.90;76.00
12229;DHT22;6177;52.402;9.800;2022-09-16T07:43:55;13.90;75.80
12229;DHT22;6177;52.402;9.800;2022-09-16T07:46:42;13.90;75.40
12229;DHT22;6177;52.402;9.800;2022-09-16T07:49:27;14.00;75.20
12229;DHT22;6177;52.402;9.800;2022-09-16T07:52:11;14.10;74.80
12229;DHT22;6177;52.402;9.800;2022-09-16T07:54:56;14.30;73.90
12229;DHT22;6177;52.402;9.800;2022-09-16T07:57:41;14.30;73.70
12229;DHT22;6177;52.402;9.800;2022-09-16T08:00:25;14.30;73.10
12229;DHT22;6177;52.402;9.800;2022-09-16T08:03:09;14.40;72.50
12229;DHT22;6177;52.402;9.800;2022-09-16T08:05:58;14.40;72.60
12229;DHT22;6177;52.402;9.800;2022-09-16T08:08:43;14.50;72.60
12229;DHT22;6177;52.402;9.800;2022-09-16T08:11:28;14.70;71.60
12229;DHT22;6177;52.402;9.800;2022-09-16T08:14:13;14.70;71.60
12229;DHT22;6177;52.402;9.800;2022-09-16T08:16:57;14.90;71.00
12229;DHT22;6177;52.402;9.800;2022-09-16T08:19:42;15.20;70.30
12229;DHT22;6177;52.402;9.800;2022-09-16T08:22:26;15.30;70.00
12229;DHT22;6177;52.402;9.800;2022-09-16T08:25:10;15.40;69.70
12229;DHT22;6177;52.402;9.800;2022-09-16T08:27:54;15.50;69.30
12229;DHT22;6177;52.402;9.800;2022-09-16T08:30:39;15.70;68.80
12229;DHT22;6177;52.402;9.800;2022-09-16T08:33:23;15.90;68.80
12229;DHT22;6177;52.402;9.800;2022-09-16T08:36:13;16.10;68.20
12229;DHT22;6177;52.402;9.800;2022-09-16T08:38:59;16.30;67.10
12229;DHT22;6177;52.402;9.800;2022-09-16T08:47:52;15.80;66.70
12229;DHT22;6177;52.402;9.800;2022-09-16T08:50:39;15.60;67.30
12229;DHT22;6177;52.402;9.800;2022-09-16T08:56:14;15.70;67.10
12229;DHT22;6177;52.402;9.800;2022-09-16T08:58:59;15.80;67.00
12229;DHT22;6177;52.402;9.800;2022-09-16T09:01:48;16.00;66.90
12229;DHT22;6177;52.402;9.800;2022-09-16T09:04:34;16.20;66.80
12229;DHT22;6177;52.402;9.800;2022-09-16T09:10:27;16.70;64.10
12229;DHT22;6177;52.402;9.800;2022-09-16T09:27:39;16.50;62.60
12229;DHT22;6177;52.402;9.800;2022-09-16T09:30:26;16.50;62.80
12229;DHT22;6177;52.402;9.800;2022-09-16T09:39:09;16.40;62.90
12229;DHT22;6177;52.402;9.800;2022-09-16T09:42:01;16.30;63.40
12229;DHT22;6177;52.402;9.800;2022-09-16T09:53:34;16.60;62.20
12229;DHT22;6177;52.402;9.800;2022-09-16T09:56:21;16.70;61.30
12229;DHT22;6177;52.402;9.800;2022-09-16T10:02:13;16.90;60.50
12229;DHT22;6177;52.402;9.800;2022-09-16T10:04:59;17.00;60.40
12229;DHT22;6177;52.402;9.800;2022-09-16T10:07:44;17.00;60.30
12229;DHT22;6177;52.402;9.800;2022-09-16T10:10:30;17.10;59.60
12229;DHT22;6177;52.402;9.800;2022-09-16T10:13:15;17.10;59.10
12229;DHT22;6177;52.402;9.800;2022-09-16T10:16:13;17.10;60.00
12229;DHT22;6177;52.402;9.800;2022-09-16T10:22:08;16.80;60.60
12229;DHT22;6177;52.402;9.800;2022-09-16T10:24:55;16.60;60.80
12229;DHT22;6177;52.402;9.800;2022-09-16T10:27:39;16.70;60.80
12229;DHT22;6177;52.402;9.800;2022-09-16T10:30:23;16.80;60.00
12229;DHT22;6177;52.402;9.800;2022-09-16T10:33:13;16.80;59.20
12229;DHT22;6177;52.402;9.800;2022-09-16T10:38:49;16.90;57.70
12229;DHT22;6177;52.402;9.800;2022-09-16T10:41:40;17.10;55.60
12229;DHT22;6177;52.402;9.800;2022-09-16T10:47:18;17.10;54.90
12229;DHT22;6177;52.402;9.800;2022-09-16T10:50:03;17.10;54.50
12229;DHT22;6177;52.402;9.800;2022-09-16T10:52:48;17.00;55.00
12229;DHT22;6177;52.402;9.800;2022-09-16T10:55:33;17.10;50.40
12229;DHT22;6177;52.402;9.800;2022-09-16T10:58:21;17.20;49.80
12229;DHT22;6177;52.402;9.800;2022-09-16T11:07:04;17.40;46.70
12229;DHT22;6177;52.402;9.800;2022-09-16T11:12:49;17.60;45.90
12229;DHT22;6177;52.402;9.800;2022-09-16T11:21:32;18.10;44.60
12229;DHT22;6177;52.402;9.800;2022-09-16T11:24:25;18.20;45.00
12229;DHT22;6177;52.402;9.800;2022-09-16T11:30:18;18.30;43.80
12229;DHT22;6177;52.402;9.800;2022-09-16T11:45:23;18.60;43.70
12229;DHT22;6177;52.402;9.800;2022-09-16T11:54:01;18.40;45.00
12229;DHT22;6177;52.402;9.800;2022-09-16T11:56:54;18.40;45.00
12229;DHT22;6177;52.402;9.800;2022-09-16T11:59:50;18.50;44.50
12229;DHT22;6177;52.402;9.800;2022-09-16T12:08:27;18.60;43.80
12229;DHT22;6177;52.402;9.800;2022-09-16T12:11:17;18.90;43.50
12229;DHT22;6177;52.402;9.800;2022-09-16T12:14:11;19.30;44.00
12229;DHT22;6177;52.402;9.800;2022-09-16T12:20:02;19.70;43.90
12229;DHT22;6177;52.402;9.800;2022-09-16T12:22:49;20.00;43.20
12229;DHT22;6177;52.402;9.800;2022-09-16T12:25:46;19.90;42.80
12229;DHT22;6177;52.402;9.800;2022-09-16T12:28:34;20.10;41.10
12229;DHT22;6177;52.402;9.800;2022-09-16T12:37:31;19.20;44.10
12229;DHT22;6177;52.402;9.800;2022-09-16T12:40:19;19.90;41.90
12229;DHT22;6177;52.402;9.800;2022-09-16T13:00:44;18.40;42.10
12229;DHT22;6177;52.402;9.800;2022-09-16T13:03:36;19.00;40.50
12229;DHT22;6177;52.402;9.800;2022-09-16T13:06:29;19.30;39.20
12229;DHT22;6177;52.402;9.800;2022-09-16T13:09:22;19.20;40.00
12229;DHT22;6177;52.402;9.800;2022-09-16T13:12:18;19.20;40.00
12229;DHT22;6177;52.402;9.800;2022-09-16T13:15:03;19.10;40.50
12229;DHT22;6177;52.402;9.800;2022-09-16T13:17:49;19.00;40.70
12229;DHT22;6177;52.402;9.800;2022-09-16T13:20:39;18.90;41.10
12229;DHT22;6177;52.402;9.800;2022-09-16T13:23:32;18.70;41.00
12229;DHT22;6177;52.402;9.800;2022-09-16T13:26:17;19.00;41.90
12229;DHT22;6177;52.402;9.800;2022-09-16T13:29:01;19.80;39.80
12229;DHT22;6177;52.402;9.800;2022-09-16T13:31:47;20.00;39.00
12229;DHT22;6177;52.402;9.800;2022-09-16T13:34:31;20.20;37.80
12229;DHT22;6177;52.402;9.800;2022-09-16T13:37:22;20.00;37.50
12229;DHT22;6177;52.402;9.800;2022-09-16T13:40:08;20.50;36.30
12229;DHT22;6177;52.402;9.800;2022-09-16T13:46:06;21.00;34.50
12229;DHT22;6177;52.402;9.800;2022-09-16T13:48:56;21.00;35.40
12229;DHT22;6177;52.402;9.800;2022-09-16T13:51:43;21.00;35.90
12229;DHT22;6177;52.402;9.800;2022-09-16T13:54:33;21.00;36.30
12229;DHT22;6177;52.402;9.800;2022-09-16T13:57:29;20.90;37.10
12229;DHT22;6177;52.402;9.800;2022-09-16T14:03:19;21.70;37.10
12229;DHT22;6177;52.402;9.800;2022-09-16T14:14:32;23.50;33.60
12229;DHT22;6177;52.402;9.800;2022-09-16T14:24:53;23.90;33.10
12229;DHT22;6177;52.402;9.800;2022-09-16T14:27:42;23.70;32.70
12229;DHT22;6177;52.402;9.800;2022-09-16T14:30:26;23.10;33.30
12229;DHT22;6177;52.402;9.800;2022-09-16T14:33:12;22.30;35.00
12229;DHT22;6177;52.402;9.800;2022-09-16T14:35:58;21.70;36.20
12229;DHT22;6177;52.402;9.800;2022-09-16T14:38:44;21.30;36.10
12229;DHT22;6177;52.402;9.800;2022-09-16T14:41:31;20.80;37.30
12229;DHT22;6177;52.402;9.800;2022-09-16T14:49:46;20.80;38.70
12229;DHT22;6177;52.402;9.800;2022-09-16T14:52:32;20.50;39.60
12229;DHT22;6177;52.402;9.800;2022-09-16T14:55:18;20.30;41.20
12229;DHT22;6177;52.402;9.800;2022-09-16T14:58:02;19.90;41.20
12229;DHT22;6177;52.402;9.800;2022-09-16T15:00:48;19.80;41.90
12229;DHT22;6177;52.402;9.800;2022-09-16T15:03:50;20.00;41.10
12229;DHT22;6177;52.402;9.800;2022-09-16T15:06:39;20.30;41.00
12229;DHT22;6177;52.402;9.800;2022-09-16T15:09:35;21.00;39.80
12229;DHT22;6177;52.402;9.800;2022-09-16T15:12:27;21.80;37.80
12229;DHT22;6177;52.402;9.800;2022-09-16T15:15:14;22.10;37.20
12229;DHT22;6177;52.402;9.800;2022-09-16T15:21:41;21.90;37.10
12229;DHT22;6177;52.402;9.800;2022-09-16T15:24:00;21.60;38.20
12229;DHT22;6177;52.402;9.800;2022-09-16T15:26:46;21.50;37.70
12229;DHT22;6177;52.402;9.800;2022-09-16T15:29:32;21.80;37.60
12229;DHT22;6177;52.402;9.800;2022-09-16T15:32:21;22.20;36.50
12229;DHT22;6177;52.402;9.800;2022-09-16T15:35:21;22.30;36.30
12229;DHT22;6177;52.402;9.800;2022-09-16T15:38:09;22.00;36.50
12229;DHT22;6177;52.402;9.800;2022-09-16T15:40:59;21.30;37.20
12229;DHT22;6177;52.402;9.800;2022-09-16T15:43:44;20.50;39.60
12229;DHT22;6177;52.402;9.800;2022-09-16T15:46:29;19.80;41.20
12229;DHT22;6177;52.402;9.800;2022-09-16T15:49:15;19.30;42.80
12229;DHT22;6177;52.402;9.800;2022-09-16T15:52:05;19.00;43.30
12229;DHT22;6177;52.402;9.800;2022-09-16T15:55:01;18.60;44.20
12229;DHT22;6177;52.402;9.800;2022-09-16T15:57:46;18.50;44.20
12229;DHT22;6177;52.402;9.800;2022-09-16T16:00:51;18.30;44.20
12229;DHT22;6177;52.402;9.800;2022-09-16T16:03:37;18.10;45.00
12229;DHT22;6177;52.402;9.800;2022-09-16T16:09:43;17.60;46.40
12229;DHT22;6177;52.402;9.800;2022-09-16T16:12:27;17.60;46.10
12229;DHT22;6177;52.402;9.800;2022-09-16T16:15:13;17.50;46.00
12229;DHT22;6177;52.402;9.800;2022-09-16T16:18:00;17.30;46.60
12229;DHT22;6177;52.402;9.800;2022-09-16T16:20:46;17.20;47.20
12229;DHT22;6177;52.402;9.800;2022-09-16T16:23:30;17.10;47.70
12229;DHT22;6177;52.402;9.800;2022-09-16T16:26:16;17.30;47.50
12229;DHT22;6177;52.402;9.800;2022-09-16T16:29:00;17.00;48.30
12229;DHT22;6177;52.402;9.800;2022-09-16T16:34:43;17.00;48.70
12229;DHT22;6177;52.402;9.800;2022-09-16T16:37:29;16.90;48.90
12229;DHT22;6177;52.402;9.800;2022-09-16T16:40:14;16.70;50.10
12229;DHT22;6177;52.402;9.800;2022-09-16T16:42:58;16.60;51.10
12229;DHT22;6177;52.402;9.800;2022-09-16T16:45:42;16.60;53.40
12229;DHT22;6177;52.402;9.800;2022-09-16T16:48:26;16.30;59.40
12229;DHT22;6177;52.402;9.800;2022-09-16T16:51:12;15.80;62.00
12229;DHT22;6177;52.402;9.800;2022-09-16T16:53:56;15.50;62.80
12229;DHT22;6177;52.402;9.800;2022-09-16T16:56:41;15.20;63.00
12229;DHT22;6177;52.402;9.800;2022-09-16T16:59:26;15.10;62.60
12229;DHT22;6177;52.402;9.800;2022-09-16T17:02:11;15.00;62.50
12229;DHT22;6177;52.402;9.800;2022-09-16T17:04:57;15.00;62.70
12229;DHT22;6177;52.402;9.800;2022-09-16T17:07:41;15.00;62.70
12229;DHT22;6177;52.402;9.800;2022-09-16T17:10:25;15.10;62.60
12229;DHT22;6177;52.402;9.800;2022-09-16T17:13:10;15.10;62.60
12229;DHT22;6177;52.402;9.800;2022-09-16T17:15:54;15.10;63.00
12229;DHT22;6177;52.402;9.800;2022-09-16T17:18:39;15.00;63.20
12229;DHT22;6177;52.402;9.800;2022-09-16T17:21:25;15.00;63.40
12229;DHT22;6177;52.402;9.800;2022-09-16T17:24:11;15.00;64.80
12229;DHT22;6177;52.402;9.800;2022-09-16T17:26:55;14.90;65.90
12229;DHT22;6177;52.402;9.800;2022-09-16T17:29:40;14.80;66.00
12229;DHT22;6177;52.402;9.800;2022-09-16T17:32:25;14.60;66.40
12229;DHT22;6177;52.402;9.800;2022-09-16T17:35:10;14.60;65.50
12229;DHT22;6177;52.402;9.800;2022-09-16T17:37:55;14.50;65.80
12229;DHT22;6177;52.402;9.800;2022-09-16T17:40:39;14.40;66.50
12229;DHT22;6177;52.402;9.800;2022-09-16T17:43:24;14.20;66.90
12229;DHT22;6177;52.402;9.800;2022-09-16T17:46:13;14.30;66.30
12229;DHT22;6177;52.402;9.800;2022-09-16T17:49:03;14.30;66.90
12229;DHT22;6177;52.402;9.800;2022-09-16T17:51:49;14.20;66.80
12229;DHT22;6177;52.402;9.800;2022-09-16T17:54:34;14.20;65.80
12229;DHT22;6177;52.402;9.800;2022-09-16T17:57:18;14.10;65.80
12229;DHT22;6177;52.402;9.800;2022-09-16T18:00:06;14.10;65.70
12229;DHT22;6177;52.402;9.800;2022-09-16T18:02:56;14.20;65.30
12229;DHT22;6177;52.402;9.800;2022-09-16T18:05:40;14.20;65.40
12229;DHT22;6177;52.402;9.800;2022-09-16T18:08:26;14.30;65.30
12229;DHT22;6177;52.402;9.800;2022-09-16T18:11:12;14.40;65.20
12229;DHT22;6177;52.402;9.800;2022-09-16T18:13:58;14.30;65.90
12229;DHT22;6177;52.402;9.800;2022-09-16T18:16:43;14.20;66.80
12229;DHT22;6177;52.402;9.800;2022-09-16T18:19:30;14.10;68.70
12229;DHT22;6177;52.402;9.800;2022-09-16T18:22:15;14.10;70.20
12229;DHT22;6177;52.402;9.800;2022-09-16T18:25:00;13.80;71.20
12229;DHT22;6177;52.402;9.800;2022-09-16T18:27:45;13.80;71.60
12229;DHT22;6177;52.402;9.800;2022-09-16T18:30:29;13.80;70.70
12229;DHT22;6177;52.402;9.800;2022-09-16T18:33:13;13.70;70.70
12229;DHT22;6177;52.402;9.800;2022-09-16T18:35:58;13.70;69.90
12229;DHT22;6177;52.402;9.800;2022-09-16T18:38:43;13.70;70.10
12229;DHT22;6177;52.402;9.800;2022-09-16T18:41:29;13.70;70.20
12229;DHT22;6177;52.402;9.800;2022-09-16T18:44:15;13.70;70.30
12229;DHT22;6177;52.402;9.800;2022-09-16T18:47:00;13.70;70.60
12229;DHT22;6177;52.402;9.800;2022-09-16T18:49:45;13.70;71.10
12229;DHT22;6177;52.402;9.800;2022-09-16T18:52:30;13.60;71.80
12229;DHT22;6177;52.402;9.800;2022-09-16T18:55:14;13.60;71.60
12229;DHT22;6177;52.402;9.800;2022-09-16T18:57:59;13.70;71.70
12229;DHT22;6177;52.402;9.800;2022-09-16T19:00:43;13.60;72.30
12229;DHT22;6177;52.402;9.800;2022-09-16T19:03:31;13.60;72.80
12229;DHT22;6177;52.402;9.800;2022-09-16T19:06:16;13.60;73.30
12229;DHT22;6177;52.402;9.800;2022-09-16T19:09:01;13.50;73.70
12229;DHT22;6177;52.402;9.800;2022-09-16T19:11:46;13.60;73.90
12229;DHT22;6177;52.402;9.800;2022-09-16T19:14:31;13.50;74.80
12229;DHT22;6177;52.402;9.800;2022-09-16T19:17:16;13.40;75.90
12229;DHT22;6177;52.402;9.800;2022-09-16T19:20:00;13.30;76.80
12229;DHT22;6177;52.402;9.800;2022-09-16T19:22:45;13.10;77.60
12229;DHT22;6177;52.402;9.800;2022-09-16T19:25:29;13.00;78.50
12229;DHT22;6177;52.402;9.800;2022-09-16T19:28:14;13.00;79.00
12229;DHT22;6177;52.402;9.800;2022-09-16T19:31:02;12.90;80.20
12229;DHT22;6177;52.402;9.800;2022-09-16T19:33:46;12.70;81.10
12229;DHT22;6177;52.402;9.800;2022-09-16T19:36:32;12.70;81.90
12229;DHT22;6177;52.402;9.800;2022-09-16T19:39:17;12.60;82.20
12229;DHT22;6177;52.402;9.800;2022-09-16T19:42:02;12.60;82.20
12229;DHT22;6177;52.402;9.800;2022-09-16T19:44:46;12.60;82.00
12229;DHT22;6177;52.402;9.800;2022-09-16T19:47:31;12.70;81.40
12229;DHT22;6177;52.402;9.800;2022-09-16T19:50:15;12.70;81.30
12229;DHT22;6177;52.402;9.800;2022-09-16T19:53:00;12.60;81.40
12229;DHT22;6177;52.402;9.800;2022-09-16T19:55:45;12.60;81.70
12229;DHT22;6177;52.402;9.800;2022-09-16T19:58:30;12.60;81.80
12229;DHT22;6177;52.402;9.800;2022-09-16T20:01:18;12.60;81.80
12229;DHT22;6177;52.402;9.800;2022-09-16T20:04:05;12.60;82.10
12229;DHT22;6177;52.402;9.800;2022-09-16T20:06:50;12.70;82.10
12229;DHT22;6177;52.402;9.800;2022-09-16T20:09:34;12.70;82.20
12229;DHT22;6177;52.402;9.800;2022-09-16T20:12:19;12.80;82.10
12229;DHT22;6177;52.402;9.800;2022-09-16T20:15:04;12.80;81.90
12229;DHT22;6177;52.402;9.800;2022-09-16T20:17:49;12.90;81.80
12229;DHT22;6177;52.402;9.800;2022-09-16T20:20:33;13.00;81.40
12229;DHT22;6177;52.402;9.800;2022-09-16T20:23:19;13.00;81.40
12229;DHT22;6177;52.402;9.800;2022-09-16T20:26:06;13.00;81.80
12229;DHT22;6177;52.402;9.800;2022-09-16T20:28:52;13.00;81.80
12229;DHT22;6177;52.402;9.800;2022-09-16T20:31:37;13.00;82.00
12229;DHT22;6177;52.402;9.800;2022-09-16T20:34:22;13.00;81.60
12229;DHT22;6177;52.402;9.800;2022-09-16T20:37:07;13.00;82.00
12229;DHT22;6177;52.402;9.800;2022-09-16T20:39:51;13.00;82.40
12229;DHT22;6177;52.402;9.800;2022-09-16T20:42:36;12.90;82.60
12229;DHT22;6177;52.402;9.800;2022-09-16T20:45:20;13.00;82.70
12229;DHT22;6177;52.402;9.800;2022-09-16T20:48:05;13.00;82.50
12229;DHT22;6177;52.402;9.800;2022-09-16T20:50:50;12.90;82.50
12229;DHT22;6177;52.402;9.800;2022-09-16T20:53:35;13.00;82.80
12229;DHT22;6177;52.402;9.800;2022-09-16T20:56:20;13.00;82.50
12229;DHT22;6177;52.402;9.800;2022-09-16T20:59:09;13.00;82.70
12229;DHT22;6177;52.402;9.800;2022-09-16T21:01:53;12.90;83.00
12229;DHT22;6177;52.402;9.800;2022-09-16T21:04:38;12.90;83.20
12229;DHT22;6177;52.402;9.800;2022-09-16T21:07:22;13.00;82.90
12229;DHT22;6177;52.402;9.800;2022-09-16T21:10:09;12.90;82.90